Time;durP1;ratioP1;P1;durP2;ratioP2;P2;SDS_P1;SDS_P2;PMS_P1;PMS_P2;Temp;Humidity;BMP_temperature;BMP_pressure;BME280_temperature;BME280_humidity;BME280_pressure;Samples;Min_cycle;Max_cycle;Signal;HPM_P1;HPM_P2
2021/12/01 00:03:08;;;;;;;2.67;0.73;;;;;;;1.11;100.00;98003.09;4903485;29;20053;-83
2021/12/01 00:06:05;;;;;;;2.88;0.93;;;;;;;1.45;100.00;98059.31;4925826;29;20037;-81
2021/12/01 00:08:54;;;;;;;2.63;1.05;;;;;;;0.95;100.00;97996.50;4903941;29;20056;-81
2021/12/01 00:11:59;;;;;;;2.97;1.23;;;;;;;1.03;100.00;98019.56;4914331;29;20059;-84
2021/12/01 00:14:55;;;;;;;2.92;0.65;;;;;;;1.26;100.00;98078.53;4880528;29;20053;-83
2021/12/01 00:17:49;;;;;;;3.17;0.75;;;;;;;1.23;100.00;98084.56;4880496;29;20200;-83
2021/12/01 00:20:38;;;;;;;3.15;1.17;;;;;;;1.21;100.00;98095.81;4874550;29;20073;-80
2021/12/01 00:23:27;;;;;;;3.78;1.13;;;;;;;0.86;100.00;98054.19;4877647;29;20061;-80
2021/12/01 00:26:21;;;;;;;3.17;1.65;;;;;;;1.12;100.00;98081.31;4879266;29;20135;-83
2021/12/01 00:29:12;;;;;;;1.95;1.20;;;;;;;0.91;100.00;98075.59;4876613;29;20073;-82
2021/12/01 00:32:18;;;;;;;3.15;1.67;;;;;;;1.14;100.00;98128.59;4849669;29;20098;-81
2021/12/01 00:35:07;;;;;;;2.80;0.95;;;;;;;1.25;100.00;98131.00;4841176;29;20081;-81
2021/12/01 00:37:55;;;;;;;3.45;1.65;;;;;;;0.97;100.00;98107.31;4850670;29;20110;-81
2021/12/01 00:40:41;;;;;;;2.13;0.73;;;;;;;1.10;100.00;98121.75;4829357;29;20395;-81
2021/12/01 00:43:32;;;;;;;1.02;0.57;;;;;;;0.93;100.00;98134.88;4853076;29;20065;-81
2021/12/01 00:46:23;;;;;;;1.55;0.80;;;;;;;1.00;100.00;98133.91;4865140;29;20066;-80
2021/12/01 00:49:08;;;;;;;3.40;1.05;;;;;;;0.87;100.00;98132.34;4869666;29;20049;-80
2021/12/01 00:51:54;;;;;;;3.63;1.83;;;;;;;1.00;100.00;98164.84;4857442;29;20078;-80
2021/12/01 00:54:39;;;;;;;2.92;1.00;;;;;;;0.87;100.00;98125.47;4869952;29;20057;-80
2021/12/01 00:57:25;;;;;;;3.35;0.77;;;;;;;1.10;100.00;98181.06;4856798;29;20136;-81
2021/12/01 01:00:12;;;;;;;2.65;1.17;;;;;;;0.96;100.00;98144.28;4855164;29;20057;-80
2021/12/01 01:02:58;;;;;;;2.65;0.80;;;;;;;1.06;100.00;98157.03;4881303;29;20043;-81
2021/12/01 01:05:43;;;;;;;3.40;0.90;;;;;;;1.26;100.00;98197.19;4908913;29;20509;-81
2021/12/01 01:08:28;;;;;;;2.10;0.98;;;;;;;1.17;100.00;98200.75;4910765;29;20056;-80
2021/12/01 01:17:30;;;;;;;4.70;2.42;;;;;;;1.19;100.00;98216.19;4911334;29;20052;-81
2021/12/01 01:20:14;;;;;;;1.83;1.30;;;;;;;1.11;100.00;98193.09;4908013;29;20041;-81
2021/12/01 01:23:05;;;;;;;2.35;1.35;;;;;;;0.95;100.00;98196.75;4906648;29;20076;-80
2021/12/01 01:25:50;;;;;;;3.33;1.42;;;;;;;0.90;100.00;98195.03;4910521;29;20044;-81
2021/12/01 01:28:59;;;;;;;4.38;2.17;;;;;;;0.95;100.00;98219.94;4885080;29;20061;-80
2021/12/01 01:31:44;;;;;;;2.63;1.40;;;;;;;1.10;100.00;98258.41;4885360;29;20052;-80
2021/12/01 01:34:28;;;;;;;2.78;1.60;;;;;;;0.87;100.00;98238.06;4886481;29;20061;-80
2021/12/01 01:37:13;;;;;;;2.85;2.20;;;;;;;1.04;100.00;98255.91;4885611;29;20105;-82
2021/12/01 01:39:57;;;;;;;3.30;1.38;;;;;;;0.91;100.00;98258.66;4883269;29;20057;-80
2021/12/01 01:42:42;;;;;;;3.65;1.45;;;;;;;0.98;100.00;98268.91;4883329;29;20446;-80
2021/12/01 01:45:26;;;;;;;2.30;1.65;;;;;;;0.89;100.00;98262.94;4883580;29;20053;-80
2021/12/01 01:48:13;;;;;;;2.60;1.60;;;;;;;0.99;100.00;98279.19;4884573;29;20065;-80
2021/12/01 01:51:04;;;;;;;1.80;1.48;;;;;;;1.02;100.00;98304.09;4885446;29;20053;-80
2021/12/01 01:53:51;;;;;;;3.00;2.15;;;;;;;1.04;100.00;98299.75;4856627;29;20057;-80
2021/12/01 01:56:35;;;;;;;3.42;2.33;;;;;;;0.85;100.00;98292.22;4883514;29;20451;-80
2021/12/01 01:59:20;;;;;;;3.35;2.10;;;;;;;0.90;100.00;98308.47;4889463;29;20120;-80
2021/12/01 02:02:05;;;;;;;5.03;2.17;;;;;;;0.87;100.00;98312.81;4903368;29;20049;-79
2021/12/01 02:04:49;;;;;;;4.78;2.25;;;;;;;1.08;100.00;98340.13;4902562;29;20044;-79
2021/12/01 02:07:34;;;;;;;4.45;3.17;;;;;;;0.95;100.00;98325.66;4902092;29;20057;-80
2021/12/01 02:10:19;;;;;;;3.80;2.63;;;;;;;0.74;100.00;98308.66;4902612;29;20053;-79
2021/12/01 02:13:03;;;;;;;2.95;2.47;;;;;;;1.05;100.00;98342.72;4901558;29;20129;-79
2021/12/01 02:15:50;;;;;;;5.63;2.55;;;;;;;0.71;100.00;98301.78;4903282;29;20369;-80
2021/12/01 02:18:34;;;;;;;3.58;2.85;;;;;;;1.06;100.00;98354.75;4903217;29;20048;-80
2021/12/01 02:21:27;;;;;;;3.30;2.33;;;;;;;0.66;100.00;98308.72;4902957;29;20056;-80
2021/12/01 02:24:14;;;;;;;3.67;2.30;;;;;;;0.93;100.00;98352.28;4890567;29;20120;-80
2021/12/01 02:26:58;;;;;;;3.45;2.13;;;;;;;0.70;100.00;98342.19;4903103;29;20128;-80
2021/12/01 02:29:43;;;;;;;2.63;1.95;;;;;;;0.78;100.00;98360.19;4903386;29;20048;-79
2021/12/01 02:32:27;;;;;;;2.92;2.50;;;;;;;0.92;100.00;98378.09;4903172;29;20041;-79
2021/12/01 02:35:11;;;;;;;3.75;2.55;;;;;;;0.69;100.00;98360.25;4902210;29;20044;-79
2021/12/01 02:37:56;;;;;;;2.78;1.90;;;;;;;0.72;100.00;98349.06;4900768;29;20062;-79
2021/12/01 02:40:41;;;;;;;3.15;2.00;;;;;;;0.84;100.00;98388.44;4902042;29;20044;-79
2021/12/01 02:43:25;;;;;;;3.03;2.08;;;;;;;0.91;100.00;98400.44;4901255;29;20040;-79
2021/12/01 02:46:09;;;;;;;5.75;4.07;;;;;;;0.82;100.00;98397.09;4901228;29;20056;-79
2021/12/01 02:48:53;;;;;;;3.60;3.28;;;;;;;0.87;100.00;98411.63;4901037;29;20147;-79
2021/12/01 02:51:39;;;;;;;3.55;2.60;;;;;;;0.68;100.00;98407.47;4888237;29;20048;-81
2021/12/01 02:54:24;;;;;;;2.70;2.45;;;;;;;0.82;100.00;98423.72;4900809;29;20148;-79
2021/12/01 02:57:09;;;;;;;4.15;3.17;;;;;;;0.79;100.00;98425.47;4901591;29;20044;-79
2021/12/01 02:59:53;;;;;;;3.17;2.72;;;;;;;0.69;100.00;98422.94;4901551;29;20056;-79
2021/12/01 03:02:38;;;;;;;4.20;3.15;;;;;;;0.76;100.00;98425.50;4901882;29;20116;-79
2021/12/01 03:05:23;;;;;;;4.18;2.30;;;;;;;0.76;100.00;98440.97;4901143;29;20430;-79
2021/12/01 03:08:09;;;;;;;3.25;2.90;;;;;;;0.79;100.00;98451.25;4900762;29;20075;-79
2021/12/01 03:10:54;;;;;;;4.13;3.10;;;;;;;0.77;100.00;98446.09;4900391;29;20052;-79
2021/12/01 03:13:39;;;;;;;3.53;2.83;;;;;;;0.74;100.00;98440.94;4900652;29;20406;-79
2021/12/01 03:16:24;;;;;;;3.40;2.20;;;;;;;0.79;100.00;98446.09;4900670;29;20060;-79
2021/12/01 03:19:08;;;;;;;4.25;2.33;;;;;;;0.65;100.00;98430.69;4900377;29;20040;-79
2021/12/01 03:21:52;;;;;;;4.22;2.20;;;;;;;0.72;100.00;98436.69;4887624;29;20049;-79
2021/12/01 03:24:37;;;;;;;3.05;2.65;;;;;;;0.68;100.00;98435.84;4887457;29;20434;-79
2021/12/01 03:27:21;;;;;;;2.40;2.20;;;;;;;0.69;100.00;98432.41;4901114;29;20077;-79
2021/12/01 03:30:12;;;;;;;3.60;3.08;;;;;;;0.69;100.00;98428.13;4900338;29;20051;-79
2021/12/01 03:32:56;;;;;;;3.58;2.90;;;;;;;0.57;100.00;98429.91;4900935;29;20361;-79
2021/12/01 03:35:43;;;;;;;4.60;3.30;;;;;;;0.64;100.00;98434.16;4901039;29;20075;-79
2021/12/01 03:38:28;;;;;;;6.47;4.00;;;;;;;0.49;100.00;98413.63;4900203;29;20049;-79
2021/12/01 03:41:12;;;;;;;3.53;3.08;;;;;;;0.58;100.00;98439.34;4887401;29;20078;-79
2021/12/01 03:43:57;;;;;;;4.00;3.33;;;;;;;0.49;100.00;98426.53;4901149;29;20076;-79
2021/12/01 03:46:41;;;;;;;4.32;3.40;;;;;;;0.33;100.00;98428.38;4900873;29;20430;-79
2021/12/01 03:49:26;;;;;;;4.80;4.30;;;;;;;0.33;100.00;98421.50;4900637;29;20048;-79
2021/12/01 03:52:15;;;;;;;4.93;4.43;;;;;;;0.35;100.00;98439.50;4900267;29;20040;-80
2021/12/01 03:55:00;;;;;;;8.65;5.68;;;;;;;0.31;100.00;98448.13;4900304;29;20044;-79
2021/12/01 03:57:44;;;;;;;4.30;3.30;;;;;;;0.30;100.00;98446.41;4886756;29;20129;-79
2021/12/01 04:00:29;;;;;;;3.95;2.90;;;;;;;0.29;100.00;98448.09;4886848;29;20049;-80
2021/12/01 04:03:14;;;;;;;13.73;8.60;;;;;;;0.32;100.00;98447.25;4900016;29;20051;-79
2021/12/01 04:05:58;;;;;;;20.15;11.10;;;;;;;0.38;100.00;98445.47;4900240;29;20411;-79
2021/12/01 04:08:43;;;;;;;74.28;34.13;;;;;;;0.38;100.00;98445.47;4899936;29;20365;-79
2021/12/01 04:11:27;;;;;;;217.32;85.82;;;;;;;0.39;100.00;98433.44;4900570;29;20068;-79
2021/12/01 04:14:11;;;;;;;315.45;117.95;;;;;;;0.46;100.00;98433.44;4899929;29;20100;-79
2021/12/01 04:16:55;;;;;;;482.42;181.15;;;;;;;0.46;100.00;98433.44;4900597;29;20048;-79
2021/12/01 04:19:40;;;;;;;225.73;101.40;;;;;;;0.47;100.00;98436.84;4899927;29;20048;-79
2021/12/01 04:22:24;;;;;;;111.88;57.55;;;;;;;0.48;100.00;98428.25;4901277;29;20040;-79
2021/12/01 04:25:09;;;;;;;31.10;16.05;;;;;;;0.48;100.00;98428.25;4904242;29;20354;-79
2021/12/01 04:27:54;;;;;;;12.88;6.95;;;;;;;0.47;100.00;98434.28;4903868;29;20060;-79
2021/12/01 04:30:38;;;;;;;8.02;4.00;;;;;;;0.37;100.00;98432.63;4904593;29;20045;-79
2021/12/01 04:33:22;;;;;;;4.78;3.30;;;;;;;0.24;100.00;98400.94;4904600;29;20044;-79
2021/12/01 04:36:08;;;;;;;4.75;2.42;;;;;;;0.24;100.00;98411.22;4903910;29;20056;-79
2021/12/01 04:38:52;;;;;;;3.97;2.05;;;;;;;0.14;100.00;98412.16;4904144;29;20354;-79
2021/12/01 04:41:48;;;;;;;3.65;2.20;;;;;;;0.06;100.00;98413.91;4903366;29;20052;-80
2021/12/01 04:44:34;;;;;;;3.10;1.88;;;;;;;-0.01;100.00;98419.06;4889935;29;20053;-81
2021/12/01 04:47:26;;;;;;;3.63;2.67;;;;;;;-0.12;100.00;98413.13;4903223;29;20041;-81
2021/12/01 04:50:12;;;;;;;4.20;2.53;;;;;;;-0.18;100.00;98407.16;4903183;29;20048;-80
2021/12/01 04:52:58;;;;;;;2.22;1.70;;;;;;;-0.06;100.00;98401.97;4903828;29;20062;-81
2021/12/01 04:55:42;;;;;;;2.88;1.70;;;;;;;-0.01;100.00;98415.66;4903402;29;20040;-81
2021/12/01 04:58:27;;;;;;;3.47;2.05;;;;;;;0.01;100.00;98431.97;4903541;29;20048;-81
2021/12/01 05:01:12;;;;;;;3.97;2.80;;;;;;;0.07;100.00;98426.78;4903625;29;20103;-81
2021/12/01 05:03:56;;;;;;;4.43;3.10;;;;;;;0.06;100.00;98427.63;4902895;29;20059;-79
2021/12/01 05:06:40;;;;;;;3.85;2.78;;;;;;;0.15;100.00;98437.03;4902913;29;20073;-79
2021/12/01 05:09:25;;;;;;;7.32;3.15;;;;;;;0.14;100.00;98433.59;4889850;29;20056;-80
2021/12/01 05:12:09;;;;;;;9.32;4.07;;;;;;;0.12;100.00;98439.63;4902770;29;20049;-81
2021/12/01 05:14:54;;;;;;;11.75;6.43;;;;;;;0.09;100.00;98447.34;4902670;29;20523;-79
2021/12/01 05:17:38;;;;;;;17.35;8.35;;;;;;;0.09;100.00;98444.78;4902666;29;20048;-81
2021/12/01 05:20:22;;;;;;;22.50;10.07;;;;;;;0.11;100.00;98448.22;4903568;29;20059;-79
2021/12/01 05:23:06;;;;;;;29.77;12.25;;;;;;;0.12;100.00;98447.34;4903317;29;20044;-80
2021/12/01 05:25:51;;;;;;;23.45;10.63;;;;;;;0.09;100.00;98453.34;4902538;29;20061;-81
2021/12/01 05:28:36;;;;;;;16.20;8.68;;;;;;;0.07;100.00;98451.69;4889239;29;20055;-81
2021/12/01 05:31:20;;;;;;;15.35;7.05;;;;;;;0.07;100.00;98438.81;4902428;29;20072;-80
2021/12/01 05:34:05;;;;;;;13.20;7.68;;;;;;;0.13;100.00;98446.47;4875785;29;20454;-79
2021/12/01 05:36:51;;;;;;;18.33;9.10;;;;;;;0.09;100.00;98434.47;4889101;29;20041;-81
2021/12/01 05:39:39;;;;;;;23.20;9.48;;;;;;;0.16;100.00;98437.03;4902315;29;20410;-81
2021/12/01 05:42:24;;;;;;;15.80;8.20;;;;;;;0.16;100.00;98437.03;4903026;29;20036;-81
2021/12/01 05:45:08;;;;;;;15.75;7.38;;;;;;;0.05;100.00;98430.22;4898361;29;20053;-81
2021/12/01 05:47:53;;;;;;;15.88;7.32;;;;;;;-0.01;100.00;98429.38;4897102;29;20049;-78
2021/12/01 05:50:37;;;;;;;15.63;8.15;;;;;;;-0.01;100.00;98429.38;4882261;29;20052;-76
2021/12/01 05:53:22;;;;;;;16.35;8.95;;;;;;;0.03;100.00;98424.22;4881580;29;20447;-78
2021/12/01 05:56:06;;;;;;;19.35;10.38;;;;;;;-0.07;100.00;98428.53;4883423;29;20037;-79
2021/12/01 05:58:50;;;;;;;21.50;10.40;;;;;;;-0.06;100.00;98428.56;4882800;29;20415;-80
2021/12/01 06:01:35;;;;;;;15.35;8.00;;;;;;;-0.07;100.00;98425.97;4894995;29;20170;-80
2021/12/01 06:04:19;;;;;;;15.98;6.28;;;;;;;-0.06;100.00;98420.84;4882540;29;20052;-80
2021/12/01 06:07:03;;;;;;;13.43;6.43;;;;;;;-0.15;100.00;98417.44;4881243;29;20048;-80
2021/12/01 06:09:48;;;;;;;15.55;8.32;;;;;;;-0.20;100.00;98417.44;4881172;29;20041;-80
2021/12/01 06:12:33;;;;;;;21.40;10.30;;;;;;;-0.15;100.00;98420.00;4894732;29;20044;-80
2021/12/01 06:15:17;;;;;;;32.85;15.20;;;;;;;-0.16;100.00;98418.28;4881476;29;20332;-80
2021/12/01 06:18:02;;;;;;;32.80;17.08;;;;;;;-0.20;100.00;98421.75;4894731;29;20049;-80
2021/12/01 06:20:47;;;;;;;28.08;15.73;;;;;;;-0.17;100.00;98425.16;4882098;29;20049;-80
2021/12/01 06:23:31;;;;;;;27.48;14.45;;;;;;;-0.19;100.00;98423.47;4896097;29;20060;-80
2021/12/01 06:26:16;;;;;;;21.90;10.23;;;;;;;-0.17;100.00;98425.16;4883424;29;20057;-80
2021/12/01 06:29:00;;;;;;;18.05;8.43;;;;;;;-0.25;100.00;98421.78;4883373;29;20045;-80
2021/12/01 06:31:44;;;;;;;25.50;13.60;;;;;;;-0.21;100.00;98426.03;4870468;29;20450;-77
2021/12/01 06:34:29;;;;;;;31.33;16.15;;;;;;;-0.18;100.00;98414.88;4895931;29;20045;-76
2021/12/01 06:37:15;;;;;;;49.08;21.45;;;;;;;-0.16;100.00;98414.00;4893782;29;20064;-76
2021/12/01 06:39:59;;;;;;;31.17;14.95;;;;;;;-0.04;100.00;98411.38;4881877;29;20048;-76
2021/12/01 06:42:43;;;;;;;23.65;10.38;;;;;;;-0.04;100.00;98410.50;4894993;29;20049;-76
2021/12/01 06:45:28;;;;;;;25.65;12.88;;;;;;;-0.05;100.00;98406.25;4883764;29;20041;-76
2021/12/01 06:48:12;;;;;;;19.50;9.00;;;;;;;-0.06;100.00;98401.97;4882296;29;20045;-76
2021/12/01 06:50:57;;;;;;;18.23;7.90;;;;;;;-0.06;100.00;98396.81;4880864;29;20409;-76
2021/12/01 06:53:42;;;;;;;14.40;6.18;;;;;;;-0.09;100.00;98400.25;4880518;29;20049;-76
2021/12/01 06:56:26;;;;;;;16.08;6.90;;;;;;;-0.11;100.00;98401.97;4893705;29;20052;-76
2021/12/01 06:59:10;;;;;;;16.77;6.85;;;;;;;-0.08;100.00;98398.53;4893711;29;20037;-76
2021/12/01 07:01:54;;;;;;;23.58;10.65;;;;;;;-0.04;100.00;98388.19;4881257;29;20077;-76
2021/12/01 07:04:38;;;;;;;18.30;9.35;;;;;;;-0.06;100.00;98389.09;4883358;29;20061;-77
2021/12/01 07:07:23;;;;;;;15.40;8.57;;;;;;;-0.10;100.00;98383.09;4886084;29;20399;-79
2021/12/01 07:10:11;;;;;;;9.43;5.05;;;;;;;-0.08;100.00;98372.78;4884036;29;20072;-79
2021/12/01 07:12:55;;;;;;;10.55;3.75;;;;;;;-0.08;100.00;98363.34;4883413;29;20057;-79
2021/12/01 07:15:39;;;;;;;12.13;5.07;;;;;;;-0.01;100.00;98359.00;4883157;29;20040;-79
2021/12/01 07:18:23;;;;;;;14.25;6.70;;;;;;;-0.06;100.00;98350.47;4895237;29;20056;-79
2021/12/01 07:21:08;;;;;;;12.23;6.45;;;;;;;-0.06;100.00;98351.31;4882928;29;20045;-78
2021/12/01 07:23:52;;;;;;;10.15;5.30;;;;;;;-0.01;100.00;98346.13;4881701;29;20041;-79
2021/12/01 07:26:37;;;;;;;16.77;7.38;;;;;;;0.06;100.00;98341.81;4893321;29;20053;-79
2021/12/01 07:29:22;;;;;;;15.10;6.10;;;;;;;0.03;100.00;98328.94;4893585;29;20044;-79
2021/12/01 07:32:07;;;;;;;12.32;5.28;;;;;;;0.11;100.00;98328.03;4896416;29;20507;-79
2021/12/01 07:34:51;;;;;;;14.15;5.10;;;;;;;0.14;100.00;98311.72;4893739;29;20041;-79
2021/12/01 07:37:35;;;;;;;14.43;6.28;;;;;;;0.17;100.00;98309.97;4881113;29;20049;-79
2021/12/01 07:40:19;;;;;;;18.35;7.85;;;;;;;0.14;100.00;98310.00;4880172;29;20120;-79
2021/12/01 07:43:04;;;;;;;26.80;9.25;;;;;;;0.19;100.00;98310.81;4882737;29;20048;-79
2021/12/01 07:45:48;;;;;;;33.78;13.48;;;;;;;0.20;100.00;98309.97;4897598;29;20104;-80
2021/12/01 07:48:33;;;;;;;37.08;14.45;;;;;;;0.30;100.00;98304.75;4898131;29;20059;-79
2021/12/01 07:51:17;;;;;;;33.03;14.23;;;;;;;0.38;100.00;98300.38;4898151;29;20615;-79
2021/12/01 07:54:02;;;;;;;32.17;14.48;;;;;;;0.41;100.00;98296.03;4901681;29;20048;-79
2021/12/01 07:56:46;;;;;;;35.90;16.30;;;;;;;0.55;100.00;98301.06;4903270;29;20049;-80
2021/12/01 07:59:31;;;;;;;46.45;22.85;;;;;;;0.66;100.00;98288.13;4907897;29;20100;-79
2021/12/01 08:02:16;;;;;;;43.20;23.05;;;;;;;0.68;100.00;98278.63;4906335;29;20044;-80
2021/12/01 08:05:00;;;;;;;39.20;21.00;;;;;;;0.90;100.00;98268.97;4903223;29;20098;-80
2021/12/01 08:07:44;;;;;;;37.53;19.55;;;;;;;0.88;100.00;98260.41;4903971;29;20052;-80
2021/12/01 08:10:29;;;;;;;45.03;21.90;;;;;;;0.97;100.00;98259.44;4890993;29;20061;-80
2021/12/01 08:13:13;;;;;;;30.65;16.42;;;;;;;1.00;100.00;98255.09;4891674;29;20123;-80
2021/12/01 08:16:00;;;;;;;26.77;14.43;;;;;;;0.97;100.00;98241.38;4904644;29;20045;-80
2021/12/01 08:18:45;;;;;;;29.25;12.75;;;;;;;0.85;100.00;98237.25;4904007;29;20331;-80
2021/12/01 08:21:31;;;;;;;25.77;11.98;;;;;;;1.16;100.00;98250.63;4904898;29;20044;-80
2021/12/01 08:24:15;;;;;;;20.73;8.85;;;;;;;1.13;100.00;98246.34;4905083;29;20045;-80
2021/12/01 08:27:00;;;;;;;20.88;8.77;;;;;;;1.40;100.00;98236.56;4905118;29;20104;-80
2021/12/01 08:29:44;;;;;;;22.27;10.32;;;;;;;1.48;100.00;98237.31;4904094;29;20044;-80
2021/12/01 08:32:28;;;;;;;21.92;11.98;;;;;;;1.55;100.00;98235.50;4903549;29;20056;-80
2021/12/01 08:35:13;;;;;;;30.10;14.60;;;;;;;1.75;100.00;98230.88;4886887;29;20075;-81
2021/12/01 08:37:58;;;;;;;28.27;13.68;;;;;;;1.74;100.00;98218.88;4884807;29;20166;-80
2021/12/01 08:40:42;;;;;;;29.77;13.45;;;;;;;1.57;100.00;98232.03;4886171;29;20100;-80
2021/12/01 08:43:27;;;;;;;37.10;19.13;;;;;;;1.72;100.00;98223.19;4886661;29;20045;-80
2021/12/01 08:46:11;;;;;;;37.33;15.85;;;;;;;1.56;100.00;98222.59;4884254;29;20511;-77
2021/12/01 08:48:58;;;;;;;20.23;8.85;;;;;;;1.51;100.00;98211.47;4883556;29;20052;-77
2021/12/01 08:51:42;;;;;;;16.42;7.10;;;;;;;1.35;100.00;98223.72;4869909;29;20045;-76
2021/12/01 08:54:27;;;;;;;24.65;10.45;;;;;;;1.43;100.00;98204.69;4871424;29;20391;-77
2021/12/01 08:57:11;;;;;;;16.90;8.23;;;;;;;1.29;100.00;98204.88;4883759;29;20134;-77
2021/12/01 08:59:56;;;;;;;21.00;10.98;;;;;;;1.49;100.00;98205.44;4884782;29;20041;-77
2021/12/01 09:02:40;;;;;;;30.65;11.80;;;;;;;1.43;100.00;98202.09;4884604;29;20457;-77
2021/12/01 09:05:25;;;;;;;23.75;10.15;;;;;;;1.39;100.00;98193.56;4884361;29;20060;-77
2021/12/01 09:08:09;;;;;;;25.13;10.98;;;;;;;1.33;100.00;98186.78;4883624;29;20053;-78
2021/12/01 09:10:58;;;;;;;20.92;9.13;;;;;;;1.33;100.00;98191.06;4870560;29;20064;-77
2021/12/01 09:13:42;;;;;;;32.38;13.30;;;;;;;1.39;100.00;98189.25;4884071;29;20455;-77
2021/12/01 09:16:27;;;;;;;29.98;12.27;;;;;;;1.42;100.00;98184.94;4869985;29;20084;-76
2021/12/01 09:19:12;;;;;;;28.50;12.32;;;;;;;1.47;100.00;98175.41;4871267;29;20056;-77
2021/12/01 09:21:57;;;;;;;31.73;12.23;;;;;;;1.31;100.00;98167.03;4885009;29;20104;-77
2021/12/01 09:24:41;;;;;;;42.38;18.92;;;;;;;1.12;100.00;98167.28;4884045;29;20056;-77
2021/12/01 09:27:25;;;;;;;32.95;17.58;;;;;;;1.18;100.00;98161.19;4884211;29;20064;-77
2021/12/01 09:30:12;;;;;;;31.77;16.10;;;;;;;1.09;100.00;98148.41;4884597;29;20355;-77
2021/12/01 09:32:57;;;;;;;34.08;17.65;;;;;;;1.20;100.00;98156.84;4883899;29;20049;-77
2021/12/01 09:35:41;;;;;;;38.88;18.40;;;;;;;1.10;100.00;98147.53;4871432;29;20430;-76
2021/12/01 09:38:26;;;;;;;41.25;21.35;;;;;;;1.07;100.00;98142.41;4883459;29;20053;-77
2021/12/01 09:41:11;;;;;;;23.20;13.50;;;;;;;1.04;100.00;98137.28;4884229;29;20051;-77
2021/12/01 09:43:55;;;;;;;28.20;12.82;;;;;;;1.06;100.00;98132.97;4884179;29;20045;-77
2021/12/01 09:46:40;;;;;;;20.45;9.40;;;;;;;0.94;100.00;98126.25;4870535;29;20383;-77
2021/12/01 09:49:24;;;;;;;23.27;11.73;;;;;;;0.97;100.00;98115.03;4884058;29;20415;-77
2021/12/01 09:52:09;;;;;;;35.47;15.32;;;;;;;1.12;100.00;98115.69;4884369;29;20048;-77
2021/12/01 09:54:54;;;;;;;32.03;15.77;;;;;;;1.08;100.00;98115.78;4873128;29;20056;-77
2021/12/01 09:58:11;;;;;;;30.65;13.55;;;;;;;1.13;100.00;98096.75;4886571;29;20432;-77
2021/12/01 10:00:58;;;;;;;30.88;13.18;;;;;;;1.13;100.00;98089.03;4883356;29;20052;-76
2021/12/01 10:03:44;;;;;;;32.10;16.52;;;;;;;1.11;100.00;98087.38;4883691;29;20049;-76
2021/12/01 10:06:28;;;;;;;27.23;13.02;;;;;;;1.02;100.00;98088.34;4884260;29;20053;-77
2021/12/01 10:09:14;;;;;;;24.23;11.50;;;;;;;1.03;100.00;98076.28;4883406;29;20053;-76
2021/12/01 10:12:05;;;;;;;25.00;10.95;;;;;;;1.21;100.00;98068.28;4882077;29;20049;-76
2021/12/01 10:14:51;;;;;;;21.13;10.32;;;;;;;1.26;100.00;98068.22;4884071;29;20049;-77
2021/12/01 10:17:35;;;;;;;14.30;8.35;;;;;;;1.17;100.00;98040.84;4884078;29;20049;-76
2021/12/01 10:20:20;;;;;;;21.20;9.85;;;;;;;1.38;100.00;98055.13;4880419;29;20048;-76
2021/12/01 10:23:09;;;;;;;26.55;11.82;;;;;;;1.44;100.00;98051.59;4881078;29;20052;-76
2021/12/01 10:25:54;;;;;;;30.08;13.77;;;;;;;1.42;100.00;98051.63;4881046;29;20064;-75
2021/12/01 10:28:42;;;;;;;28.05;15.45;;;;;;;1.45;100.00;98038.66;4885015;29;20045;-76
2021/12/01 10:31:37;;;;;;;28.67;13.68;;;;;;;1.47;100.00;98042.09;4883145;29;20052;-76
2021/12/01 10:34:44;;;;;;;20.58;8.68;;;;;;;1.50;100.00;98033.44;4882345;29;20049;-76
2021/12/01 10:37:33;;;;;;;43.75;21.42;;;;;;;1.54;100.00;98027.34;4883060;29;20049;-77
2021/12/01 10:40:24;;;;;;;33.20;17.00;;;;;;;1.46;100.00;98029.19;4870003;29;20445;-76
2021/12/01 10:43:10;;;;;;;60.95;30.45;;;;;;;1.68;100.00;98033.09;4869457;29;20446;-76
2021/12/01 10:45:55;;;;;;;49.88;21.92;;;;;;;1.57;100.00;98024.72;4883036;29;20049;-76
2021/12/01 10:48:40;;;;;;;31.85;15.73;;;;;;;1.61;100.00;98019.47;4882449;29;20395;-77
2021/12/01 10:51:37;;;;;;;32.22;17.02;;;;;;;1.63;100.00;98017.72;4869320;29;20108;-76
2021/12/01 10:54:21;;;;;;;24.55;12.65;;;;;;;1.71;100.00;98012.41;4895529;29;20401;-76
2021/12/01 10:57:18;;;;;;;32.40;15.90;;;;;;;1.69;100.00;97997.81;4882499;29;20053;-76
2021/12/01 11:00:11;;;;;;;18.65;9.48;;;;;;;1.76;100.00;97995.13;4883006;29;20048;-76
2021/12/01 11:03:10;;;;;;;28.17;15.43;;;;;;;1.76;100.00;97986.53;4882927;29;20045;-76
2021/12/01 11:05:58;;;;;;;19.35;7.35;;;;;;;1.78;100.00;97989.91;4882811;29;20049;-76
2021/12/01 11:08:47;;;;;;;24.33;9.15;;;;;;;1.77;100.00;97978.75;4882845;29;20060;-76
2021/12/01 11:11:50;;;;;;;17.90;8.75;;;;;;;1.91;100.00;97972.47;4882794;29;20044;-76
2021/12/01 11:14:43;;;;;;;39.78;20.05;;;;;;;2.00;100.00;97954.22;4882699;29;20044;-76
2021/12/01 11:17:43;;;;;;;60.20;24.15;;;;;;;2.01;100.00;97941.25;4882725;29;20096;-76
2021/12/01 11:20:36;;;;;;;45.97;16.10;;;;;;;2.05;100.00;97929.16;4882615;29;20077;-76
2021/12/01 11:23:24;;;;;;;52.53;20.73;;;;;;;2.13;100.00;97922.06;4868485;29;20049;-76
2021/12/01 11:26:16;;;;;;;44.42;15.90;;;;;;;2.27;100.00;97922.63;4882459;29;20045;-76
2021/12/01 11:29:03;;;;;;;67.47;23.50;;;;;;;2.38;100.00;97916.41;4895438;29;20052;-77
2021/12/01 11:31:48;;;;;;;65.72;20.13;;;;;;;2.40;100.00;97897.38;4883729;29;20427;-78
2021/12/01 11:34:32;;;;;;;70.47;21.67;;;;;;;2.41;100.00;97893.91;4895330;29;20044;-77
2021/12/01 11:37:17;;;;;;;69.53;24.60;;;;;;;2.49;100.00;97878.22;4882211;29;20113;-77
2021/12/01 11:40:02;;;;;;;47.65;16.30;;;;;;;2.48;100.00;97889.47;4895367;29;20041;-77
2021/12/01 11:42:47;;;;;;;69.57;22.63;;;;;;;2.56;100.00;97877.19;4894824;29;20045;-77
2021/12/01 11:45:32;;;;;;;37.30;14.18;;;;;;;2.49;100.00;97875.66;4893654;29;20048;-77
2021/12/01 11:48:29;;;;;;;77.13;33.60;;;;;;;2.71;100.00;97861.31;4879757;29;20441;-77
2021/12/01 11:51:27;;;;;;;43.65;17.20;;;;;;;2.63;100.00;97855.47;4892884;29;20136;-77
2021/12/01 11:54:16;;;;;;;32.25;13.82;;;;;;;2.74;100.00;97855.25;4892777;29;20045;-77
2021/12/01 11:57:08;;;;;;;21.73;9.55;;;;;;;2.63;100.00;97845.13;4879584;29;20508;-77
2021/12/01 11:59:52;;;;;;;22.52;10.48;;;;;;;2.68;100.00;97817.44;4893086;29;20408;-77
2021/12/01 12:02:38;;;;;;;92.03;41.53;;;;;;;2.74;100.00;97816.47;4881395;29;20447;-77
2021/12/01 12:05:27;;;;;;;29.42;12.75;;;;;;;2.70;100.00;97807.94;4881943;29;20057;-77
2021/12/01 12:08:50;;;;;;;57.17;26.75;;;;;;;2.68;100.00;97799.34;4894656;29;20128;-77
2021/12/01 12:11:40;;;;;;;14.70;7.57;;;;;;;2.77;100.00;97803.44;4868759;29;20056;-77
2021/12/01 12:14:31;;;;;;;20.45;8.57;;;;;;;2.76;100.00;97791.41;4868282;29;20120;-77
2021/12/01 12:17:19;;;;;;;22.45;10.95;;;;;;;2.81;100.00;97790.41;4894635;29;20063;-77
2021/12/01 12:20:28;;;;;;;20.80;10.60;;;;;;;2.80;100.00;97788.72;4895027;29;20045;-77
2021/12/01 12:23:16;;;;;;;21.63;9.65;;;;;;;2.77;100.00;97775.84;4881973;29;20108;-77
2021/12/01 12:25:59;;;;;;;30.20;15.38;;;;;;;2.83;100.00;97767.09;4882481;29;20049;-77
2021/12/01 12:28:44;;;;;;;26.63;12.50;;;;;;;2.80;100.00;97749.94;4882409;29;20366;-77
2021/12/01 12:31:29;;;;;;;71.05;27.20;;;;;;;2.79;100.00;97737.03;4882060;29;20041;-77
2021/12/01 12:34:16;;;;;;;42.50;19.25;;;;;;;2.66;100.00;97717.56;4881892;29;20327;-77
2021/12/01 12:37:05;;;;;;;65.72;21.25;;;;;;;2.74;100.00;97721.66;4894373;29;20332;-77
2021/12/01 12:39:52;;;;;;;23.00;10.13;;;;;;;2.66;100.00;97720.13;4894288;29;20041;-77
2021/12/01 12:43:07;;;;;;;52.78;18.08;;;;;;;2.70;100.00;97722.63;4894579;29;20073;-77
2021/12/01 12:46:16;;;;;;;35.42;13.20;;;;;;;2.77;100.00;97721.56;4885614;29;20045;-77
2021/12/01 12:49:00;;;;;;;50.67;19.08;;;;;;;2.28;100.00;97650.50;4871653;29;20045;-77
2021/12/01 12:51:45;;;;;;;40.33;16.38;;;;;;;2.73;100.00;97704.44;4884594;29;20052;-76
2021/12/01 12:54:30;;;;;;;36.95;17.42;;;;;;;2.76;100.00;97701.78;4885186;29;20056;-77
2021/12/01 12:57:16;;;;;;;37.72;16.33;;;;;;;2.74;100.00;97690.63;4885404;29;20049;-77
2021/12/01 13:00:23;;;;;;;38.58;15.75;;;;;;;2.79;100.00;97695.66;4885082;29;20045;-77
2021/12/01 13:03:22;;;;;;;38.40;20.67;;;;;;;2.86;100.00;97707.56;4885266;29;20060;-77